sensor_id;sensor_type;location;lat;lon;timestamp;P1;durP1;ratioP1;P2;durP2;ratioP2
31764;SDS011;18338;53.240;8.798;2023-04-16T00:01:35;25.13;;;20.60;;
31764;SDS011;18338;53.240;8.798;2023-04-16T00:04:02;24.52;;;19.95;;
31764;SDS011;18338;53.240;8.798;2023-04-16T00:06:29;27.30;;;20.25;;
31764;SDS011;18338;53.240;8.798;2023-04-16T00:08:57;23.63;;;19.60;;
31764;SDS011;18338;53.240;8.798;2023-04-16T00:11:26;23.83;;;19.55;;
31764;SDS011;18338;53.240;8.798;2023-04-16T00:13:53;25.23;;;19.88;;
31764;SDS011;18338;53.240;8.798;2023-04-16T00:16:21;22.88;;;19.85;;
31764;SDS011;18338;53.240;8.798;2023-04-16T00:18:48;23.65;;;19.90;;
31764;SDS011;18338;53.240;8.798;2023-04-16T00:21:15;26.35;;;20.77;;
31764;SDS011;18338;53.240;8.798;2023-04-16T00:23:42;23.17;;;20.20;;
31764;SDS011;18338;53.240;8.798;2023-04-16T00:26:08;25.10;;;19.60;;
31764;SDS011;18338;53.240;8.798;2023-04-16T00:28:35;25.17;;;21.23;;
31764;SDS011;18338;53.240;8.798;2023-04-16T00:31:02;25.55;;;21.08;;
31764;SDS011;18338;53.240;8.798;2023-04-16T00:33:29;25.98;;;20.40;;
31764;SDS011;18338;53.240;8.798;2023-04-16T00:35:56;26.55;;;20.70;;
31764;SDS011;18338;53.240;8.798;2023-04-16T00:38:23;26.65;;;20.45;;
31764;SDS011;18338;53.240;8.798;2023-04-16T00:40:50;25.30;;;20.05;;
31764;SDS011;18338;53.240;8.798;2023-04-16T00:43:23;23.70;;;19.77;;
31764;SDS011;18338;53.240;8.798;2023-04-16T00:45:51;26.75;;;21.27;;
31764;SDS011;18338;53.240;8.798;2023-04-16T00:48:19;27.00;;;20.10;;
31764;SDS011;18338;53.240;8.798;2023-04-16T00:50:47;27.15;;;20.40;;
31764;SDS011;18338;53.240;8.798;2023-04-16T00:53:14;24.73;;;20.08;;
31764;SDS011;18338;53.240;8.798;2023-04-16T00:55:41;26.75;;;22.02;;
31764;SDS011;18338;53.240;8.798;2023-04-16T00:58:09;26.20;;;20.80;;
31764;SDS011;18338;53.240;8.798;2023-04-16T01:00:35;26.15;;;21.27;;
31764;SDS011;18338;53.240;8.798;2023-04-16T01:03:03;25.38;;;20.63;;
31764;SDS011;18338;53.240;8.798;2023-04-16T01:05:30;26.48;;;21.20;;
31764;SDS011;18338;53.240;8.798;2023-04-16T01:07:57;26.92;;;21.05;;
31764;SDS011;18338;53.240;8.798;2023-04-16T01:10:26;24.92;;;20.48;;
31764;SDS011;18338;53.240;8.798;2023-04-16T01:12:53;23.25;;;20.55;;
31764;SDS011;18338;53.240;8.798;2023-04-16T01:15:19;25.10;;;20.20;;
31764;SDS011;18338;53.240;8.798;2023-04-16T01:17:46;25.38;;;20.63;;
31764;SDS011;18338;53.240;8.798;2023-04-16T01:20:13;25.55;;;20.27;;
31764;SDS011;18338;53.240;8.798;2023-04-16T01:22:40;22.25;;;18.60;;
31764;SDS011;18338;53.240;8.798;2023-04-16T01:25:08;24.10;;;20.27;;
31764;SDS011;18338;53.240;8.798;2023-04-16T01:27:39;22.98;;;18.90;;
31764;SDS011;18338;53.240;8.798;2023-04-16T01:30:06;22.42;;;19.27;;
31764;SDS011;18338;53.240;8.798;2023-04-16T01:32:33;25.60;;;19.27;;
31764;SDS011;18338;53.240;8.798;2023-04-16T01:35:00;23.85;;;20.17;;
31764;SDS011;18338;53.240;8.798;2023-04-16T01:37:27;24.50;;;19.38;;
31764;SDS011;18338;53.240;8.798;2023-04-16T01:39:54;24.90;;;20.13;;
31764;SDS011;18338;53.240;8.798;2023-04-16T01:42:21;25.77;;;19.60;;
31764;SDS011;18338;53.240;8.798;2023-04-16T01:44:47;24.55;;;19.65;;
31764;SDS011;18338;53.240;8.798;2023-04-16T01:47:14;25.33;;;20.65;;
31764;SDS011;18338;53.240;8.798;2023-04-16T01:49:40;24.27;;;20.05;;
31764;SDS011;18338;53.240;8.798;2023-04-16T01:52:09;24.63;;;19.63;;
31764;SDS011;18338;53.240;8.798;2023-04-16T01:54:35;24.65;;;20.67;;
31764;SDS011;18338;53.240;8.798;2023-04-16T01:57:02;23.83;;;19.73;;
31764;SDS011;18338;53.240;8.798;2023-04-16T01:59:29;21.67;;;18.60;;
31764;SDS011;18338;53.240;8.798;2023-04-16T02:01:55;23.75;;;19.38;;
31764;SDS011;18338;53.240;8.798;2023-04-16T02:04:23;23.08;;;19.83;;
31764;SDS011;18338;53.240;8.798;2023-04-16T02:06:49;23.58;;;18.92;;
31764;SDS011;18338;53.240;8.798;2023-04-16T02:09:16;24.00;;;20.25;;
31764;SDS011;18338;53.240;8.798;2023-04-16T02:11:43;22.70;;;19.33;;
31764;SDS011;18338;53.240;8.798;2023-04-16T02:14:09;23.30;;;19.02;;
31764;SDS011;18338;53.240;8.798;2023-04-16T02:16:36;22.98;;;18.98;;
31764;SDS011;18338;53.240;8.798;2023-04-16T02:19:02;26.83;;;20.10;;
31764;SDS011;18338;53.240;8.798;2023-04-16T02:21:29;27.13;;;19.98;;
31764;SDS011;18338;53.240;8.798;2023-04-16T02:23:56;25.02;;;18.88;;
31764;SDS011;18338;53.240;8.798;2023-04-16T02:26:23;23.02;;;19.48;;
31764;SDS011;18338;53.240;8.798;2023-04-16T02:28:51;25.38;;;20.02;;
31764;SDS011;18338;53.240;8.798;2023-04-16T02:31:18;24.55;;;20.23;;
31764;SDS011;18338;53.240;8.798;2023-04-16T02:33:45;24.77;;;19.77;;
31764;SDS011;18338;53.240;8.798;2023-04-16T02:36:12;24.08;;;19.77;;
31764;SDS011;18338;53.240;8.798;2023-04-16T02:38:38;23.02;;;19.55;;
31764;SDS011;18338;53.240;8.798;2023-04-16T02:41:06;22.52;;;20.08;;
31764;SDS011;18338;53.240;8.798;2023-04-16T02:43:32;23.48;;;19.73;;
31764;SDS011;18338;53.240;8.798;2023-04-16T02:45:59;27.15;;;21.20;;
31764;SDS011;18338;53.240;8.798;2023-04-16T02:48:26;25.23;;;20.20;;
31764;SDS011;18338;53.240;8.798;2023-04-16T02:50:52;23.98;;;20.35;;
31764;SDS011;18338;53.240;8.798;2023-04-16T02:53:19;29.05;;;22.52;;
31764;SDS011;18338;53.240;8.798;2023-04-16T02:55:53;26.10;;;20.17;;
31764;SDS011;18338;53.240;8.798;2023-04-16T02:58:20;25.70;;;20.10;;
31764;SDS011;18338;53.240;8.798;2023-04-16T03:00:52;25.45;;;21.17;;
31764;SDS011;18338;53.240;8.798;2023-04-16T03:03:19;24.35;;;20.50;;
31764;SDS011;18338;53.240;8.798;2023-04-16T03:05:46;28.48;;;21.70;;
31764;SDS011;18338;53.240;8.798;2023-04-16T03:08:13;24.35;;;20.85;;
31764;SDS011;18338;53.240;8.798;2023-04-16T03:10:40;27.23;;;21.42;;
31764;SDS011;18338;53.240;8.798;2023-04-16T03:13:07;24.85;;;21.23;;
31764;SDS011;18338;53.240;8.798;2023-04-16T03:15:33;27.15;;;22.13;;
31764;SDS011;18338;53.240;8.798;2023-04-16T03:18:00;25.05;;;21.10;;
31764;SDS011;18338;53.240;8.798;2023-04-16T03:20:27;25.75;;;21.55;;
31764;SDS011;18338;53.240;8.798;2023-04-16T03:22:53;27.63;;;21.23;;
31764;SDS011;18338;53.240;8.798;2023-04-16T03:25:20;25.58;;;21.10;;
31764;SDS011;18338;53.240;8.798;2023-04-16T03:27:47;25.10;;;20.45;;
31764;SDS011;18338;53.240;8.798;2023-04-16T03:30:13;29.50;;;21.38;;
31764;SDS011;18338;53.240;8.798;2023-04-16T03:32:41;24.50;;;20.23;;
31764;SDS011;18338;53.240;8.798;2023-04-16T03:35:08;26.23;;;20.45;;
31764;SDS011;18338;53.240;8.798;2023-04-16T03:37:35;25.33;;;20.23;;
31764;SDS011;18338;53.240;8.798;2023-04-16T03:40:02;23.48;;;20.25;;
31764;SDS011;18338;53.240;8.798;2023-04-16T03:42:30;23.17;;;19.85;;
31764;SDS011;18338;53.240;8.798;2023-04-16T03:44:57;24.48;;;19.92;;
31764;SDS011;18338;53.240;8.798;2023-04-16T03:47:24;24.73;;;19.73;;
31764;SDS011;18338;53.240;8.798;2023-04-16T03:49:51;26.65;;;20.75;;
31764;SDS011;18338;53.240;8.798;2023-04-16T03:52:17;26.63;;;20.92;;
31764;SDS011;18338;53.240;8.798;2023-04-16T03:54:44;26.27;;;20.83;;
31764;SDS011;18338;53.240;8.798;2023-04-16T03:57:10;25.45;;;20.02;;
31764;SDS011;18338;53.240;8.798;2023-04-16T03:59:37;24.65;;;20.30;;
31764;SDS011;18338;53.240;8.798;2023-04-16T04:02:04;24.27;;;19.98;;
31764;SDS011;18338;53.240;8.798;2023-04-16T04:04:30;24.67;;;19.95;;
31764;SDS011;18338;53.240;8.798;2023-04-16T04:06:57;23.85;;;20.38;;
31764;SDS011;18338;53.240;8.798;2023-04-16T04:09:24;23.45;;;19.17;;
31764;SDS011;18338;53.240;8.798;2023-04-16T04:11:50;23.40;;;19.80;;
31764;SDS011;18338;53.240;8.798;2023-04-16T04:14:17;26.75;;;19.48;;
31764;SDS011;18338;53.240;8.798;2023-04-16T04:16:43;24.23;;;19.55;;
31764;SDS011;18338;53.240;8.798;2023-04-16T04:19:10;24.92;;;20.25;;
31764;SDS011;18338;53.240;8.798;2023-04-16T04:21:37;24.08;;;20.65;;
31764;SDS011;18338;53.240;8.798;2023-04-16T04:24:04;24.98;;;20.17;;
31764;SDS011;18338;53.240;8.798;2023-04-16T04:26:31;25.02;;;18.88;;
31764;SDS011;18338;53.240;8.798;2023-04-16T04:28:57;24.10;;;19.55;;
31764;SDS011;18338;53.240;8.798;2023-04-16T04:31:24;23.77;;;18.40;;
31764;SDS011;18338;53.240;8.798;2023-04-16T04:33:51;25.20;;;19.20;;
31764;SDS011;18338;53.240;8.798;2023-04-16T04:36:17;25.65;;;19.95;;
31764;SDS011;18338;53.240;8.798;2023-04-16T04:38:44;25.92;;;19.08;;
31764;SDS011;18338;53.240;8.798;2023-04-16T04:41:10;23.70;;;19.08;;
31764;SDS011;18338;53.240;8.798;2023-04-16T04:43:37;21.95;;;17.33;;
31764;SDS011;18338;53.240;8.798;2023-04-16T04:46:03;21.30;;;18.10;;
31764;SDS011;18338;53.240;8.798;2023-04-16T04:48:30;22.75;;;18.40;;
31764;SDS011;18338;53.240;8.798;2023-04-16T04:50:57;23.40;;;17.70;;
31764;SDS011;18338;53.240;8.798;2023-04-16T04:53:23;23.58;;;18.02;;
31764;SDS011;18338;53.240;8.798;2023-04-16T04:55:50;20.58;;;18.33;;
31764;SDS011;18338;53.240;8.798;2023-04-16T04:58:22;22.23;;;17.48;;
31764;SDS011;18338;53.240;8.798;2023-04-16T05:00:49;23.70;;;17.58;;
31764;SDS011;18338;53.240;8.798;2023-04-16T05:03:18;19.80;;;17.25;;
31764;SDS011;18338;53.240;8.798;2023-04-16T05:05:46;21.42;;;17.55;;
31764;SDS011;18338;53.240;8.798;2023-04-16T05:08:13;21.38;;;17.00;;
31764;SDS011;18338;53.240;8.798;2023-04-16T05:10:40;20.67;;;17.45;;
31764;SDS011;18338;53.240;8.798;2023-04-16T05:13:06;20.70;;;17.02;;
31764;SDS011;18338;53.240;8.798;2023-04-16T05:15:33;21.52;;;17.13;;
31764;SDS011;18338;53.240;8.798;2023-04-16T05:17:59;20.13;;;16.45;;
31764;SDS011;18338;53.240;8.798;2023-04-16T05:20:26;20.40;;;17.13;;
31764;SDS011;18338;53.240;8.798;2023-04-16T05:22:53;22.58;;;17.73;;
31764;SDS011;18338;53.240;8.798;2023-04-16T05:25:20;20.02;;;17.00;;
31764;SDS011;18338;53.240;8.798;2023-04-16T05:27:47;23.55;;;16.48;;
31764;SDS011;18338;53.240;8.798;2023-04-16T05:30:14;18.92;;;15.95;;
31764;SDS011;18338;53.240;8.798;2023-04-16T05:32:40;19.52;;;16.33;;
31764;SDS011;18338;53.240;8.798;2023-04-16T05:35:07;20.75;;;17.25;;
31764;SDS011;18338;53.240;8.798;2023-04-16T05:37:34;20.48;;;16.15;;
31764;SDS011;18338;53.240;8.798;2023-04-16T05:40:01;17.85;;;15.07;;
31764;SDS011;18338;53.240;8.798;2023-04-16T05:42:29;19.65;;;15.38;;
31764;SDS011;18338;53.240;8.798;2023-04-16T05:44:55;19.90;;;16.08;;
31764;SDS011;18338;53.240;8.798;2023-04-16T05:47:22;19.65;;;15.57;;
31764;SDS011;18338;53.240;8.798;2023-04-16T05:49:49;20.58;;;14.88;;
31764;SDS011;18338;53.240;8.798;2023-04-16T05:52:16;19.10;;;15.70;;
31764;SDS011;18338;53.240;8.798;2023-04-16T05:54:42;17.30;;;13.80;;
31764;SDS011;18338;53.240;8.798;2023-04-16T05:57:09;17.13;;;14.57;;
31764;SDS011;18338;53.240;8.798;2023-04-16T05:59:35;18.63;;;15.35;;
31764;SDS011;18338;53.240;8.798;2023-04-16T06:02:02;18.35;;;15.13;;
31764;SDS011;18338;53.240;8.798;2023-04-16T06:04:29;17.58;;;14.82;;
31764;SDS011;18338;53.240;8.798;2023-04-16T06:06:56;18.20;;;14.48;;
31764;SDS011;18338;53.240;8.798;2023-04-16T06:09:22;17.63;;;14.20;;
31764;SDS011;18338;53.240;8.798;2023-04-16T06:11:49;16.95;;;14.20;;
31764;SDS011;18338;53.240;8.798;2023-04-16T06:14:16;15.15;;;13.55;;
31764;SDS011;18338;53.240;8.798;2023-04-16T06:16:43;16.33;;;13.75;;
31764;SDS011;18338;53.240;8.798;2023-04-16T06:19:09;16.90;;;13.73;;
31764;SDS011;18338;53.240;8.798;2023-04-16T06:21:36;16.67;;;14.30;;
31764;SDS011;18338;53.240;8.798;2023-04-16T06:24:03;15.85;;;12.95;;
31764;SDS011;18338;53.240;8.798;2023-04-16T06:26:30;17.05;;;13.10;;
31764;SDS011;18338;53.240;8.798;2023-04-16T06:28:56;15.88;;;13.57;;
31764;SDS011;18338;53.240;8.798;2023-04-16T06:31:23;15.52;;;13.55;;
31764;SDS011;18338;53.240;8.798;2023-04-16T06:33:50;15.48;;;12.95;;
31764;SDS011;18338;53.240;8.798;2023-04-16T06:36:16;15.43;;;12.90;;
31764;SDS011;18338;53.240;8.798;2023-04-16T06:38:43;15.77;;;12.88;;
31764;SDS011;18338;53.240;8.798;2023-04-16T06:41:09;16.13;;;13.13;;
31764;SDS011;18338;53.240;8.798;2023-04-16T06:43:36;15.27;;;13.65;;
31764;SDS011;18338;53.240;8.798;2023-04-16T06:46:03;16.23;;;13.50;;
31764;SDS011;18338;53.240;8.798;2023-04-16T06:48:29;19.35;;;14.02;;
31764;SDS011;18338;53.240;8.798;2023-04-16T06:50:56;14.52;;;12.85;;
31764;SDS011;18338;53.240;8.798;2023-04-16T06:53:23;16.98;;;12.85;;
31764;SDS011;18338;53.240;8.798;2023-04-16T06:55:50;15.48;;;13.02;;
31764;SDS011;18338;53.240;8.798;2023-04-16T06:58:16;14.50;;;12.55;;
31764;SDS011;18338;53.240;8.798;2023-04-16T07:00:43;13.77;;;12.27;;
31764;SDS011;18338;53.240;8.798;2023-04-16T07:03:11;15.18;;;13.13;;
31764;SDS011;18338;53.240;8.798;2023-04-16T07:05:37;15.27;;;13.00;;
31764;SDS011;18338;53.240;8.798;2023-04-16T07:08:04;15.88;;;12.70;;
31764;SDS011;18338;53.240;8.798;2023-04-16T07:10:31;14.07;;;12.02;;
31764;SDS011;18338;53.240;8.798;2023-04-16T07:12:57;14.07;;;12.20;;
31764;SDS011;18338;53.240;8.798;2023-04-16T07:15:26;12.75;;;11.43;;
31764;SDS011;18338;53.240;8.798;2023-04-16T07:17:53;14.95;;;12.05;;
31764;SDS011;18338;53.240;8.798;2023-04-16T07:20:20;14.77;;;11.63;;
31764;SDS011;18338;53.240;8.798;2023-04-16T07:22:46;13.45;;;12.05;;
31764;SDS011;18338;53.240;8.798;2023-04-16T07:25:13;14.48;;;12.18;;
31764;SDS011;18338;53.240;8.798;2023-04-16T07:27:39;14.43;;;12.50;;
31764;SDS011;18338;53.240;8.798;2023-04-16T07:30:06;13.48;;;11.90;;
31764;SDS011;18338;53.240;8.798;2023-04-16T07:32:34;14.25;;;12.68;;
31764;SDS011;18338;53.240;8.798;2023-04-16T07:35:01;15.27;;;11.90;;
31764;SDS011;18338;53.240;8.798;2023-04-16T07:37:28;13.85;;;11.75;;
31764;SDS011;18338;53.240;8.798;2023-04-16T07:39:56;14.07;;;12.38;;
31764;SDS011;18338;53.240;8.798;2023-04-16T07:42:22;13.32;;;11.90;;
31764;SDS011;18338;53.240;8.798;2023-04-16T07:44:49;14.35;;;11.77;;
31764;SDS011;18338;53.240;8.798;2023-04-16T07:47:16;12.82;;;11.52;;
31764;SDS011;18338;53.240;8.798;2023-04-16T07:49:42;15.15;;;11.25;;
31764;SDS011;18338;53.240;8.798;2023-04-16T07:52:09;14.55;;;11.55;;
31764;SDS011;18338;53.240;8.798;2023-04-16T07:54:35;16.02;;;11.95;;
31764;SDS011;18338;53.240;8.798;2023-04-16T07:57:02;14.68;;;12.40;;
31764;SDS011;18338;53.240;8.798;2023-04-16T07:59:29;12.48;;;11.15;;
31764;SDS011;18338;53.240;8.798;2023-04-16T08:01:56;15.55;;;11.75;;
31764;SDS011;18338;53.240;8.798;2023-04-16T08:04:22;13.80;;;11.05;;
31764;SDS011;18338;53.240;8.798;2023-04-16T08:06:51;14.63;;;11.00;;
31764;SDS011;18338;53.240;8.798;2023-04-16T08:09:18;14.50;;;11.63;;
31764;SDS011;18338;53.240;8.798;2023-04-16T08:11:46;13.60;;;11.82;;
31764;SDS011;18338;53.240;8.798;2023-04-16T08:14:15;13.70;;;11.57;;
31764;SDS011;18338;53.240;8.798;2023-04-16T08:16:42;11.95;;;10.35;;
31764;SDS011;18338;53.240;8.798;2023-04-16T08:19:11;14.68;;;10.70;;
31764;SDS011;18338;53.240;8.798;2023-04-16T08:21:38;12.82;;;11.02;;
31764;SDS011;18338;53.240;8.798;2023-04-16T08:24:05;13.70;;;10.90;;
31764;SDS011;18338;53.240;8.798;2023-04-16T08:26:32;15.07;;;11.13;;
31764;SDS011;18338;53.240;8.798;2023-04-16T08:28:58;14.30;;;10.88;;
31764;SDS011;18338;53.240;8.798;2023-04-16T08:31:25;13.30;;;10.18;;
31764;SDS011;18338;53.240;8.798;2023-04-16T08:33:52;13.95;;;11.00;;
31764;SDS011;18338;53.240;8.798;2023-04-16T08:36:19;12.18;;;10.65;;
31764;SDS011;18338;53.240;8.798;2023-04-16T08:38:45;12.85;;;11.40;;
31764;SDS011;18338;53.240;8.798;2023-04-16T08:41:12;13.93;;;10.90;;
31764;SDS011;18338;53.240;8.798;2023-04-16T08:43:43;14.50;;;11.30;;
31764;SDS011;18338;53.240;8.798;2023-04-16T08:46:13;12.90;;;10.45;;
31764;SDS011;18338;53.240;8.798;2023-04-16T08:48:42;15.80;;;12.00;;
31764;SDS011;18338;53.240;8.798;2023-04-16T08:51:14;12.82;;;11.10;;
31764;SDS011;18338;53.240;8.798;2023-04-16T08:53:45;13.07;;;11.25;;
31764;SDS011;18338;53.240;8.798;2023-04-16T08:56:18;12.73;;;11.30;;
31764;SDS011;18338;53.240;8.798;2023-04-16T08:58:49;11.88;;;10.63;;
31764;SDS011;18338;53.240;8.798;2023-04-16T09:01:17;12.15;;;10.48;;
31764;SDS011;18338;53.240;8.798;2023-04-16T09:03:45;13.70;;;11.13;;
31764;SDS011;18338;53.240;8.798;2023-04-16T09:06:13;11.70;;;10.50;;
31764;SDS011;18338;53.240;8.798;2023-04-16T09:08:44;11.77;;;10.55;;
31764;SDS011;18338;53.240;8.798;2023-04-16T09:11:13;13.18;;;10.63;;
31764;SDS011;18338;53.240;8.798;2023-04-16T09:13:43;12.07;;;10.63;;
31764;SDS011;18338;53.240;8.798;2023-04-16T09:16:11;13.55;;;11.52;;
31764;SDS011;18338;53.240;8.798;2023-04-16T09:18:39;12.38;;;11.07;;
31764;SDS011;18338;53.240;8.798;2023-04-16T09:21:07;13.57;;;10.50;;
31764;SDS011;18338;53.240;8.798;2023-04-16T09:23:35;12.07;;;10.55;;
31764;SDS011;18338;53.240;8.798;2023-04-16T09:26:04;14.68;;;11.55;;
31764;SDS011;18338;53.240;8.798;2023-04-16T09:28:40;13.50;;;11.55;;
31764;SDS011;18338;53.240;8.798;2023-04-16T09:31:16;13.68;;;10.70;;
31764;SDS011;18338;53.240;8.798;2023-04-16T09:33:59;13.55;;;11.15;;
31764;SDS011;18338;53.240;8.798;2023-04-16T09:36:33;13.70;;;10.63;;
31764;SDS011;18338;53.240;8.798;2023-04-16T09:39:01;13.13;;;10.57;;
31764;SDS011;18338;53.240;8.798;2023-04-16T09:41:29;14.70;;;10.93;;
31764;SDS011;18338;53.240;8.798;2023-04-16T09:46:29;12.50;;;10.93;;
31764;SDS011;18338;53.240;8.798;2023-04-16T09:48:57;13.15;;;11.57;;
31764;SDS011;18338;53.240;8.798;2023-04-16T09:51:35;12.32;;;10.82;;
31764;SDS011;18338;53.240;8.798;2023-04-16T09:54:06;12.18;;;10.98;;
31764;SDS011;18338;53.240;8.798;2023-04-16T09:56:38;13.75;;;10.65;;
31764;SDS011;18338;53.240;8.798;2023-04-16T09:59:18;15.18;;;11.30;;
31764;SDS011;18338;53.240;8.798;2023-04-16T10:02:28;13.18;;;10.40;;
31764;SDS011;18338;53.240;8.798;2023-04-16T10:04:56;13.07;;;11.10;;
31764;SDS011;18338;53.240;8.798;2023-04-16T10:07:26;12.70;;;11.10;;
31764;SDS011;18338;53.240;8.798;2023-04-16T10:09:54;12.10;;;10.80;;
31764;SDS011;18338;53.240;8.798;2023-04-16T10:12:21;11.63;;;9.95;;
31764;SDS011;18338;53.240;8.798;2023-04-16T10:14:48;14.55;;;11.07;;
31764;SDS011;18338;53.240;8.798;2023-04-16T10:17:15;12.02;;;10.68;;
31764;SDS011;18338;53.240;8.798;2023-04-16T10:19:43;11.40;;;10.25;;
31764;SDS011;18338;53.240;8.798;2023-04-16T10:22:10;13.27;;;10.30;;
31764;SDS011;18338;53.240;8.798;2023-04-16T10:24:37;15.25;;;10.73;;
31764;SDS011;18338;53.240;8.798;2023-04-16T10:27:06;12.63;;;11.10;;
31764;SDS011;18338;53.240;8.798;2023-04-16T10:29:33;11.52;;;10.30;;
31764;SDS011;18338;53.240;8.798;2023-04-16T10:32:01;11.48;;;10.02;;
31764;SDS011;18338;53.240;8.798;2023-04-16T10:34:28;11.40;;;10.20;;
31764;SDS011;18338;53.240;8.798;2023-04-16T10:36:57;11.65;;;10.43;;
31764;SDS011;18338;53.240;8.798;2023-04-16T10:39:24;11.35;;;10.15;;
31764;SDS011;18338;53.240;8.798;2023-04-16T10:42:09;11.07;;;9.77;;
31764;SDS011;18338;53.240;8.798;2023-04-16T10:44:38;11.50;;;9.55;;
31764;SDS011;18338;53.240;8.798;2023-04-16T10:47:09;12.75;;;10.90;;
31764;SDS011;18338;53.240;8.798;2023-04-16T10:49:38;10.25;;;9.20;;
31764;SDS011;18338;53.240;8.798;2023-04-16T10:52:09;10.95;;;9.85;;
31764;SDS011;18338;53.240;8.798;2023-04-16T10:54:38;11.45;;;10.20;;
31764;SDS011;18338;53.240;8.798;2023-04-16T10:57:07;10.98;;;9.85;;
31764;SDS011;18338;53.240;8.798;2023-04-16T10:59:41;12.45;;;10.60;;
31764;SDS011;18338;53.240;8.798;2023-04-16T11:02:17;13.18;;;10.45;;
31764;SDS011;18338;53.240;8.798;2023-04-16T11:04:49;10.88;;;9.77;;
31764;SDS011;18338;53.240;8.798;2023-04-16T11:07:17;12.60;;;10.90;;
31764;SDS011;18338;53.240;8.798;2023-04-16T11:09:46;12.60;;;10.32;;
31764;SDS011;18338;53.240;8.798;2023-04-16T11:12:23;10.93;;;9.77;;
31764;SDS011;18338;53.240;8.798;2023-04-16T11:15:00;11.95;;;10.23;;
31764;SDS011;18338;53.240;8.798;2023-04-16T11:17:30;10.95;;;9.88;;
31764;SDS011;18338;53.240;8.798;2023-04-16T11:19:58;11.05;;;10.02;;
31764;SDS011;18338;53.240;8.798;2023-04-16T11:22:26;11.00;;;9.85;;
31764;SDS011;18338;53.240;8.798;2023-04-16T11:24:53;10.68;;;9.68;;
31764;SDS011;18338;53.240;8.798;2023-04-16T11:27:22;11.25;;;10.15;;
31764;SDS011;18338;53.240;8.798;2023-04-16T11:29:56;10.88;;;9.75;;
31764;SDS011;18338;53.240;8.798;2023-04-16T11:32:29;13.43;;;10.02;;
31764;SDS011;18338;53.240;8.798;2023-04-16T11:35:00;12.68;;;10.57;;
31764;SDS011;18338;53.240;8.798;2023-04-16T11:37:33;12.27;;;11.05;;
31764;SDS011;18338;53.240;8.798;2023-04-16T11:40:01;11.52;;;10.43;;
31764;SDS011;18338;53.240;8.798;2023-04-16T11:42:33;12.45;;;10.02;;
31764;SDS011;18338;53.240;8.798;2023-04-16T11:45:02;11.13;;;10.10;;
31764;SDS011;18338;53.240;8.798;2023-04-16T11:47:30;12.05;;;10.95;;
31764;SDS011;18338;53.240;8.798;2023-04-16T11:49:57;11.63;;;10.45;;
31764;SDS011;18338;53.240;8.798;2023-04-16T11:52:39;11.98;;;10.68;;
31764;SDS011;18338;53.240;8.798;2023-04-16T11:55:06;12.93;;;10.60;;
31764;SDS011;18338;53.240;8.798;2023-04-16T11:57:33;12.20;;;10.93;;
31764;SDS011;18338;53.240;8.798;2023-04-16T12:00:00;12.05;;;10.82;;
31764;SDS011;18338;53.240;8.798;2023-04-16T12:02:36;12.55;;;11.27;;
31764;SDS011;18338;53.240;8.798;2023-04-16T12:08:10;13.32;;;11.95;;
31764;SDS011;18338;53.240;8.798;2023-04-16T12:10:59;13.80;;;12.40;;
31764;SDS011;18338;53.240;8.798;2023-04-16T12:13:24;12.15;;;10.95;;
31764;SDS011;18338;53.240;8.798;2023-04-16T12:15:52;12.15;;;10.95;;
31764;SDS011;18338;53.240;8.798;2023-04-16T12:18:20;12.77;;;11.40;;
31764;SDS011;18338;53.240;8.798;2023-04-16T12:20:53;12.88;;;11.48;;
31764;SDS011;18338;53.240;8.798;2023-04-16T12:23:27;13.18;;;11.80;;
31764;SDS011;18338;53.240;8.798;2023-04-16T12:25:55;13.35;;;11.88;;
31764;SDS011;18338;53.240;8.798;2023-04-16T12:28:31;12.77;;;11.40;;
31764;SDS011;18338;53.240;8.798;2023-04-16T12:31:00;13.95;;;11.55;;
31764;SDS011;18338;53.240;8.798;2023-04-16T12:33:27;13.40;;;11.98;;
31764;SDS011;18338;53.240;8.798;2023-04-16T12:35:54;13.50;;;12.10;;
31764;SDS011;18338;53.240;8.798;2023-04-16T12:38:21;12.57;;;11.30;;
31764;SDS011;18338;53.240;8.798;2023-04-16T12:40:50;13.20;;;11.68;;
31764;SDS011;18338;53.240;8.798;2023-04-16T12:43:17;13.45;;;12.10;;
31764;SDS011;18338;53.240;8.798;2023-04-16T12:45:45;13.52;;;12.15;;
31764;SDS011;18338;53.240;8.798;2023-04-16T12:48:11;12.63;;;11.40;;
31764;SDS011;18338;53.240;8.798;2023-04-16T12:50:38;13.20;;;11.85;;
31764;SDS011;18338;53.240;8.798;2023-04-16T12:53:05;15.43;;;12.27;;
31764;SDS011;18338;53.240;8.798;2023-04-16T12:55:32;13.30;;;11.90;;
31764;SDS011;18338;53.240;8.798;2023-04-16T12:57:58;14.05;;;12.52;;
31764;SDS011;18338;53.240;8.798;2023-04-16T13:00:26;14.57;;;12.60;;
31764;SDS011;18338;53.240;8.798;2023-04-16T13:02:52;14.45;;;13.05;;
31764;SDS011;18338;53.240;8.798;2023-04-16T13:05:19;14.93;;;13.05;;
31764;SDS011;18338;53.240;8.798;2023-04-16T13:07:46;14.60;;;12.35;;
31764;SDS011;18338;53.240;8.798;2023-04-16T13:10:13;15.75;;;13.82;;
31764;SDS011;18338;53.240;8.798;2023-04-16T13:12:40;15.25;;;13.60;;
31764;SDS011;18338;53.240;8.798;2023-04-16T13:15:06;14.77;;;13.20;;
31764;SDS011;18338;53.240;8.798;2023-04-16T13:17:34;14.77;;;13.27;;
31764;SDS011;18338;53.240;8.798;2023-04-16T13:20:01;14.48;;;13.00;;
31764;SDS011;18338;53.240;8.798;2023-04-16T13:22:28;15.75;;;13.25;;
31764;SDS011;18338;53.240;8.798;2023-04-16T13:24:55;14.75;;;12.55;;
31764;SDS011;18338;53.240;8.798;2023-04-16T13:27:22;13.07;;;11.77;;
31764;SDS011;18338;53.240;8.798;2023-04-16T13:29:49;14.43;;;12.93;;
31764;SDS011;18338;53.240;8.798;2023-04-16T13:32:15;14.20;;;12.40;;
31764;SDS011;18338;53.240;8.798;2023-04-16T13:34:43;13.60;;;12.30;;
31764;SDS011;18338;53.240;8.798;2023-04-16T13:37:10;13.57;;;12.18;;
31764;SDS011;18338;53.240;8.798;2023-04-16T13:39:37;14.68;;;13.27;;
31764;SDS011;18338;53.240;8.798;2023-04-16T13:42:04;14.50;;;13.02;;
31764;SDS011;18338;53.240;8.798;2023-04-16T13:44:31;14.55;;;13.15;;
31764;SDS011;18338;53.240;8.798;2023-04-16T13:46:58;15.15;;;13.48;;
31764;SDS011;18338;53.240;8.798;2023-04-16T13:49:25;15.75;;;14.25;;
31764;SDS011;18338;53.240;8.798;2023-04-16T13:51:52;16.05;;;14.45;;
31764;SDS011;18338;53.240;8.798;2023-04-16T13:54:19;16.75;;;15.05;;
31764;SDS011;18338;53.240;8.798;2023-04-16T13:56:45;16.17;;;14.68;;
31764;SDS011;18338;53.240;8.798;2023-04-16T13:59:12;17.15;;;14.38;;
31764;SDS011;18338;53.240;8.798;2023-04-16T14:01:40;16.48;;;14.85;;
31764;SDS011;18338;53.240;8.798;2023-04-16T14:04:07;16.45;;;14.85;;
31764;SDS011;18338;53.240;8.798;2023-04-16T14:06:34;16.13;;;14.63;;
31764;SDS011;18338;53.240;8.798;2023-04-16T14:09:00;15.75;;;14.35;;
31764;SDS011;18338;53.240;8.798;2023-04-16T14:11:27;15.63;;;14.05;;
31764;SDS011;18338;53.240;8.798;2023-04-16T14:13:54;15.18;;;13.68;;
31764;SDS011;18338;53.240;8.798;2023-04-16T14:16:21;15.07;;;13.68;;
31764;SDS011;18338;53.240;8.798;2023-04-16T14:18:48;16.17;;;14.57;;
31764;SDS011;18338;53.240;8.798;2023-04-16T14:21:16;16.20;;;14.60;;
31764;SDS011;18338;53.240;8.798;2023-04-16T14:23:43;17.42;;;15.70;;
31764;SDS011;18338;53.240;8.798;2023-04-16T14:26:10;16.10;;;14.50;;
31764;SDS011;18338;53.240;8.798;2023-04-16T14:28:37;15.95;;;14.38;;
31764;SDS011;18338;53.240;8.798;2023-04-16T14:31:05;18.02;;;16.10;;